createdAt,value
2015-09-15T00:00:12.085Z,73457
2015-09-15T00:00:24.479Z,73459
2015-09-15T00:00:36.885Z,73455
2015-09-15T00:00:49.354Z,73459
2015-09-15T00:01:01.745Z,73457
2015-09-15T00:01:14.135Z,73455
2015-09-15T00:01:26.527Z,73454
2015-09-15T00:01:38.917Z,73453
2015-09-15T00:01:51.292Z,73452
2015-09-15T00:02:03.761Z,73453
2015-09-15T00:02:16.261Z,73456
2015-09-15T00:02:28.701Z,73460
2015-09-15T00:02:41.123Z,73455
2015-09-15T00:02:53.560Z,73459
2015-09-15T00:03:05.982Z,73457
2015-09-15T00:03:18.357Z,73459
2015-09-15T00:03:30.765Z,73458
2015-09-15T00:03:43.187Z,73460
2015-09-15T00:03:55.609Z,73461
2015-09-15T00:04:08.015Z,73461
2015-09-15T00:04:20.437Z,73463
2015-09-15T00:04:32.831Z,73456
2015-09-15T00:04:45.221Z,73465
2015-09-15T00:04:57.612Z,73457
2015-09-15T00:05:10.096Z,73464
2015-09-15T00:05:22.503Z,73462
2015-09-15T00:05:34.925Z,73460
2015-09-15T00:05:47.347Z,73465
2015-09-15T00:05:59.050Z,73459
2015-09-15T00:06:11.472Z,73461
2015-09-15T00:06:23.863Z,73456
2015-09-15T00:06:36.256Z,73460
2015-09-15T00:06:48.631Z,73456
2015-09-15T00:07:01.037Z,73458
2015-09-15T00:07:13.459Z,73460
2015-09-15T00:07:25.849Z,73456
2015-09-15T00:07:38.258Z,73452
2015-09-15T00:07:50.648Z,73450
2015-09-15T00:08:03.054Z,73456
2015-09-15T00:08:15.461Z,73450
2015-09-15T00:08:27.883Z,73453
2015-09-15T00:08:40.291Z,73456
2015-09-15T00:08:52.728Z,73454
2015-09-15T00:09:05.150Z,73450
2015-09-15T00:09:17.588Z,73456
2015-09-15T00:09:29.994Z,73453
2015-09-15T00:09:42.402Z,73455
2015-09-15T00:09:54.793Z,73454
2015-09-15T00:10:07.183Z,73453
2015-09-15T00:10:19.574Z,73452
2015-09-15T00:10:31.982Z,73456
2015-09-15T00:10:44.420Z,73456
2015-09-15T00:10:56.826Z,73454
2015-09-15T00:11:09.217Z,73449
2015-09-15T00:11:21.639Z,73453
2015-09-15T00:11:34.047Z,73453
2015-09-15T00:11:46.453Z,73454
2015-09-15T00:11:58.891Z,73456
2015-09-15T00:12:11.312Z,73457
2015-09-15T00:12:23.750Z,73451
2015-09-15T00:12:36.174Z,73459
2015-09-15T00:12:48.596Z,73454
2015-09-15T00:13:01.002Z,73456
2015-09-15T00:13:13.439Z,73453
2015-09-15T00:13:25.830Z,73450
2015-09-15T00:13:38.223Z,73456
2015-09-15T00:13:50.613Z,73451
2015-09-15T00:14:03.035Z,73453
2015-09-15T00:14:15.426Z,73453
2015-09-15T00:14:27.816Z,73455
2015-09-15T00:14:40.068Z,73452
2015-09-15T00:14:52.475Z,73457
2015-09-15T00:15:04.881Z,73458
2015-09-15T00:15:17.350Z,73453
2015-09-15T00:15:29.865Z,73454
2015-09-15T00:15:42.289Z,73457
2015-09-15T00:15:54.727Z,73455
2015-09-15T00:16:07.164Z,73456
2015-09-15T00:16:19.602Z,73461
2015-09-15T00:16:31.992Z,73459
2015-09-15T00:16:44.385Z,73462
2015-09-15T00:16:56.776Z,73462
2015-09-15T00:17:09.182Z,73460
2015-09-15T00:17:21.572Z,73461
2015-09-15T00:17:33.963Z,73464
2015-09-15T00:17:46.231Z,73461
2015-09-15T00:17:58.621Z,73461
2015-09-15T00:18:11.012Z,73458
2015-09-15T00:18:23.418Z,73457
2015-09-15T00:18:35.840Z,73456
2015-09-15T00:18:48.248Z,73459
2015-09-15T00:19:00.686Z,73461
2015-09-15T00:19:13.108Z,73457
2015-09-15T00:19:25.545Z,73457
2015-09-15T00:19:37.983Z,73456
2015-09-15T00:19:50.406Z,73454
2015-09-15T00:20:02.827Z,73451
2015-09-15T00:20:15.218Z,73450
2015-09-15T00:20:27.624Z,73449
2015-09-15T00:20:40.015Z,73447
2015-09-15T00:20:52.424Z,73453
2015-09-15T00:21:04.815Z,73450
2015-09-15T00:21:17.221Z,73455
2015-09-15T00:21:29.627Z,73451
2015-09-15T00:21:42.034Z,73453
2015-09-15T00:21:54.473Z,73449
2015-09-15T00:22:06.911Z,73448
2015-09-15T00:22:19.332Z,73447
2015-09-15T00:22:31.770Z,73448
2015-09-15T00:22:43.520Z,73447
2015-09-15T00:22:55.928Z,73444
2015-09-15T00:23:08.319Z,73442
2015-09-15T00:23:20.709Z,73444
2015-09-15T00:23:33.116Z,73440
2015-09-15T00:23:45.350Z,73443
2015-09-15T00:23:57.758Z,73443
2015-09-15T00:24:10.196Z,73444
2015-09-15T00:24:22.586Z,73446
2015-09-15T00:24:34.274Z,73440
2015-09-15T00:24:46.696Z,73442
2015-09-15T00:24:59.103Z,73440
2015-09-15T00:25:11.509Z,73440
2015-09-15T00:25:23.947Z,73444
2015-09-15T00:25:36.369Z,73445
2015-09-15T00:25:48.791Z,73439
2015-09-15T00:26:01.230Z,73442
2015-09-15T00:26:13.668Z,73443
2015-09-15T00:26:26.074Z,73441
2015-09-15T00:26:38.464Z,73446
2015-09-15T00:26:50.855Z,73447
2015-09-15T00:27:03.264Z,73447
2015-09-15T00:27:15.655Z,73447
2015-09-15T00:27:28.077Z,73449
2015-09-15T00:27:40.483Z,73453
2015-09-15T00:27:52.889Z,73456
2015-09-15T00:28:05.282Z,73454
2015-09-15T00:28:17.688Z,73453
2015-09-15T00:28:30.110Z,73454
2015-09-15T00:28:42.516Z,73452
2015-09-15T00:28:54.956Z,73454
2015-09-15T00:29:07.378Z,73448
2015-09-15T00:29:19.800Z,73449
2015-09-15T00:29:32.237Z,73451
2015-09-15T00:29:44.643Z,73454
2015-09-15T00:29:57.036Z,73454
2015-09-15T00:30:09.427Z,73454
2015-09-15T00:30:21.817Z,73453
2015-09-15T00:30:34.223Z,73451
2015-09-15T00:30:46.614Z,73453
2015-09-15T00:30:59.038Z,73452
2015-09-15T00:31:11.429Z,73451
2015-09-15T00:31:23.819Z,73450
2015-09-15T00:31:36.225Z,73455
2015-09-15T00:31:48.475Z,73453
2015-09-15T00:32:00.883Z,73452
2015-09-15T00:32:13.320Z,73454
2015-09-15T00:32:25.789Z,73458
2015-09-15T00:32:38.351Z,73456
2015-09-15T00:32:50.773Z,73460
2015-09-15T00:33:03.213Z,73464
2015-09-15T00:33:15.603Z,73464
2015-09-15T00:33:27.994Z,73462
2015-09-15T00:33:40.400Z,73464
2015-09-15T00:33:52.791Z,73471
2015-09-15T00:34:05.199Z,73464
2015-09-15T00:34:17.590Z,73467
2015-09-15T00:34:29.996Z,73469
2015-09-15T00:34:42.402Z,73473
2015-09-15T00:34:54.793Z,73471
2015-09-15T00:35:07.202Z,73468
2015-09-15T00:35:19.608Z,73467
2015-09-15T00:35:32.015Z,73467
2015-09-15T00:35:44.421Z,73462
2015-09-15T00:35:56.858Z,73464
2015-09-15T00:36:09.281Z,73460
2015-09-15T00:36:21.703Z,73460
2015-09-15T00:36:34.125Z,73459
2015-09-15T00:36:46.516Z,73458
2015-09-15T00:36:58.906Z,73457
2015-09-15T00:37:11.299Z,73456
2015-09-15T00:37:23.705Z,73459
2015-09-15T00:37:36.096Z,73460
2015-09-15T00:37:48.502Z,73460
2015-09-15T00:38:00.908Z,73461
2015-09-15T00:38:13.301Z,73459
2015-09-15T00:38:25.692Z,73461
2015-09-15T00:38:38.082Z,73460
2015-09-15T00:38:50.473Z,73456
2015-09-15T00:39:02.879Z,73456
2015-09-15T00:39:15.288Z,73455
2015-09-15T00:39:27.710Z,73455
2015-09-15T00:39:39.429Z,73453
2015-09-15T00:39:51.851Z,73455
2015-09-15T00:40:04.288Z,73451
2015-09-15T00:40:16.680Z,73456
2015-09-15T00:40:29.086Z,73457
2015-09-15T00:40:41.477Z,73457
2015-09-15T00:40:53.883Z,73462
2015-09-15T00:41:06.289Z,73459
2015-09-15T00:41:18.698Z,73460
2015-09-15T00:41:31.088Z,73458
2015-09-15T00:41:43.494Z,73458
2015-09-15T00:41:55.901Z,73455
2015-09-15T00:42:08.307Z,73456
2015-09-15T00:42:20.715Z,73455
2015-09-15T00:42:33.137Z,73454
2015-09-15T00:42:45.559Z,73450
2015-09-15T00:42:57.996Z,73452
2015-09-15T00:43:10.434Z,73450
2015-09-15T00:43:22.842Z,73447
2015-09-15T00:43:35.233Z,73442
2015-09-15T00:43:47.655Z,73446
2015-09-15T00:44:00.061Z,73447
2015-09-15T00:44:12.467Z,73448
2015-09-15T00:44:24.874Z,73446
2015-09-15T00:44:37.265Z,73446
2015-09-15T00:44:49.656Z,73449
2015-09-15T00:45:02.046Z,73450
2015-09-15T00:45:14.453Z,73446
2015-09-15T00:45:26.861Z,73450
2015-09-15T00:45:39.267Z,73449
2015-09-15T00:45:51.689Z,73449
2015-09-15T00:46:04.111Z,73455
2015-09-15T00:46:16.533Z,73452
2015-09-15T00:46:28.973Z,73456
2015-09-15T00:46:41.395Z,73450
2015-09-15T00:46:53.770Z,73457
2015-09-15T00:47:05.458Z,73457
2015-09-15T00:47:17.848Z,73455
2015-09-15T00:47:30.256Z,73457
2015-09-15T00:47:42.663Z,73457
2015-09-15T00:47:55.085Z,73454
2015-09-15T00:48:07.491Z,73454
2015-09-15T00:48:19.883Z,73458
2015-09-15T00:48:32.290Z,73452
2015-09-15T00:48:44.696Z,73457
2015-09-15T00:48:57.118Z,73454
2015-09-15T00:49:09.555Z,73454
2015-09-15T00:49:21.978Z,73455
2015-09-15T00:49:34.259Z,73452
2015-09-15T00:49:46.681Z,73456
2015-09-15T00:49:59.072Z,73458
2015-09-15T00:50:11.478Z,73460
2015-09-15T00:50:23.872Z,73454
2015-09-15T00:50:36.262Z,73465
2015-09-15T00:50:48.653Z,73463
2015-09-15T00:51:01.075Z,73470
2015-09-15T00:51:13.481Z,73465
2015-09-15T00:51:26.014Z,73471
2015-09-15T00:51:38.436Z,73473
2015-09-15T00:51:50.858Z,73472
2015-09-15T00:52:03.296Z,73472
2015-09-15T00:52:15.733Z,73467
2015-09-15T00:52:28.140Z,73471
2015-09-15T00:52:40.594Z,73468
2015-09-15T00:52:53.000Z,73461
2015-09-15T00:53:05.390Z,73457
2015-09-15T00:53:17.781Z,73451
2015-09-15T00:53:30.189Z,73453
2015-09-15T00:53:42.611Z,73452
2015-09-15T00:53:55.002Z,73450
2015-09-15T00:54:07.392Z,73450
2015-09-15T00:54:19.814Z,73448
2015-09-15T00:54:32.223Z,73447
2015-09-15T00:54:44.629Z,73449
2015-09-15T00:54:57.035Z,73451
2015-09-15T00:55:09.473Z,73453
2015-09-15T00:55:21.894Z,73450
2015-09-15T00:55:34.351Z,73453
2015-09-15T00:55:46.741Z,73447
2015-09-15T00:55:59.147Z,73449
2015-09-15T00:56:11.538Z,73453
2015-09-15T00:56:23.913Z,73449
2015-09-15T00:56:36.321Z,73453
2015-09-15T00:56:48.728Z,73450
2015-09-15T00:57:01.149Z,73453
2015-09-15T00:57:13.556Z,73453
2015-09-15T00:57:25.962Z,73455
2015-09-15T00:57:38.369Z,73456
2015-09-15T00:57:50.807Z,73449
2015-09-15T00:58:03.229Z,73454
2015-09-15T00:58:15.650Z,73451
2015-09-15T00:58:28.072Z,73449
2015-09-15T00:58:40.496Z,73454
2015-09-15T00:58:52.902Z,73441
2015-09-15T00:59:05.309Z,73446
2015-09-15T00:59:17.699Z,73442
2015-09-15T00:59:30.090Z,73449
2015-09-15T00:59:42.499Z,73445
2015-09-15T00:59:54.905Z,73445
2015-09-15T01:00:06.577Z,73448
2015-09-15T01:00:18.984Z,73444
2015-09-15T01:00:31.452Z,73447
2015-09-15T01:00:43.922Z,73440
2015-09-15T01:00:56.344Z,73445
2015-09-15T01:01:08.781Z,73438
2015-09-15T01:01:21.172Z,73439
2015-09-15T01:01:33.563Z,73438
2015-09-15T01:01:45.955Z,73434
2015-09-15T01:01:58.362Z,73440
2015-09-15T01:02:10.752Z,73437
2015-09-15T01:02:23.158Z,73438
2015-09-15T01:02:35.565Z,73435
2015-09-15T01:02:47.973Z,73431
2015-09-15T01:03:00.426Z,73438
2015-09-15T01:03:12.910Z,73432
2015-09-15T01:03:25.364Z,73436
2015-09-15T01:03:37.785Z,73428
2015-09-15T01:03:50.225Z,73434
2015-09-15T01:04:02.662Z,73436
2015-09-15T01:04:15.053Z,73440
2015-09-15T01:04:27.459Z,73441
2015-09-15T01:04:39.868Z,73439
2015-09-15T01:04:52.305Z,73447
2015-09-15T01:05:04.711Z,73442
2015-09-15T01:05:17.102Z,73452
2015-09-15T01:05:29.508Z,73448
2015-09-15T01:05:41.760Z,73450
2015-09-15T01:05:54.151Z,73453
2015-09-15T01:06:06.573Z,73448
2015-09-15T01:06:18.979Z,73454
2015-09-15T01:06:31.385Z,73451
2015-09-15T01:06:43.825Z,73449
2015-09-15T01:06:55.528Z,73447
2015-09-15T01:07:07.965Z,73449
2015-09-15T01:07:20.387Z,73453
2015-09-15T01:07:32.778Z,73449
2015-09-15T01:07:45.186Z,73448
2015-09-15T01:07:57.577Z,73444
2015-09-15T01:08:09.967Z,73447
2015-09-15T01:08:22.358Z,73445
2015-09-15T01:08:34.780Z,73446
2015-09-15T01:08:47.204Z,73448
2015-09-15T01:08:59.610Z,73438
2015-09-15T01:09:12.016Z,73440
2015-09-15T01:09:24.454Z,73439
2015-09-15T01:09:36.876Z,73434
2015-09-15T01:09:49.315Z,73434
2015-09-15T01:10:01.737Z,73432
2015-09-15T01:10:14.112Z,73428
2015-09-15T01:10:26.518Z,73430
2015-09-15T01:10:38.924Z,73431
2015-09-15T01:10:51.317Z,73429
2015-09-15T01:11:03.739Z,73431
2015-09-15T01:11:16.145Z,73432
2015-09-15T01:11:28.536Z,73432
2015-09-15T01:11:40.942Z,73436
2015-09-15T01:11:53.335Z,73432
2015-09-15T01:12:05.741Z,73434
2015-09-15T01:12:18.147Z,73433
2015-09-15T01:12:30.569Z,73434
2015-09-15T01:12:42.991Z,73439
2015-09-15T01:12:55.430Z,73432
2015-09-15T01:13:07.852Z,73431
2015-09-15T01:13:20.274Z,73438
2015-09-15T01:13:32.696Z,73435
2015-09-15T01:13:45.102Z,73437
2015-09-15T01:13:57.494Z,73435
2015-09-15T01:14:09.885Z,73435
2015-09-15T01:14:22.291Z,73435
2015-09-15T01:14:34.681Z,73438
2015-09-15T01:14:47.088Z,73433
2015-09-15T01:14:59.481Z,73435
2015-09-15T01:15:11.888Z,73434
2015-09-15T01:15:23.575Z,73439
2015-09-15T01:15:35.981Z,73442
2015-09-15T01:15:48.403Z,73437
2015-09-15T01:16:00.810Z,73443
2015-09-15T01:16:13.232Z,73442
2015-09-15T01:16:25.654Z,73443
2015-09-15T01:16:38.092Z,73442
2015-09-15T01:16:50.529Z,73445
2015-09-15T01:17:02.922Z,73441
2015-09-15T01:17:15.312Z,73447
2015-09-15T01:17:26.984Z,73441
2015-09-15T01:17:39.391Z,73437
2015-09-15T01:17:51.781Z,73438
2015-09-15T01:18:04.174Z,73434
2015-09-15T01:18:16.564Z,73436
2015-09-15T01:18:28.939Z,73429
2015-09-15T01:18:41.330Z,73433
2015-09-15T01:18:53.799Z,73427
2015-09-15T01:19:06.207Z,73432
2015-09-15T01:19:18.629Z,73427
2015-09-15T01:19:31.035Z,73434
2015-09-15T01:19:43.473Z,73426
2015-09-15T01:19:55.895Z,73430
2015-09-15T01:20:08.335Z,73430
2015-09-15T01:20:20.757Z,73431
2015-09-15T01:20:33.163Z,73432
2015-09-15T01:20:45.554Z,73430
2015-09-15T01:20:57.960Z,73432
2015-09-15T01:21:10.368Z,73427
2015-09-15T01:21:22.759Z,73435
2015-09-15T01:21:35.150Z,73432
2015-09-15T01:21:47.571Z,73431
2015-09-15T01:21:59.978Z,73435
2015-09-15T01:22:12.385Z,73431
2015-09-15T01:22:24.807Z,73433
2015-09-15T01:22:37.229Z,73433
2015-09-15T01:22:49.651Z,73435
2015-09-15T01:23:02.088Z,73433
2015-09-15T01:23:14.529Z,73432
2015-09-15T01:23:26.935Z,73437
2015-09-15T01:23:39.325Z,73443
2015-09-15T01:23:51.716Z,73440
2015-09-15T01:24:04.123Z,73443
2015-09-15T01:24:16.530Z,73440
2015-09-15T01:24:28.201Z,73444
2015-09-15T01:24:40.592Z,73439
2015-09-15T01:24:52.998Z,73443
2015-09-15T01:25:05.391Z,73438
2015-09-15T01:25:17.813Z,73436
2015-09-15T01:25:30.219Z,73440
2015-09-15T01:25:42.625Z,73433
2015-09-15T01:25:55.063Z,73442
2015-09-15T01:26:07.487Z,73437
2015-09-15T01:26:19.924Z,73437
2015-09-15T01:26:32.330Z,73444
2015-09-15T01:26:44.737Z,73434
2015-09-15T01:26:57.127Z,73435
2015-09-15T01:27:09.520Z,73442
2015-09-15T01:27:21.926Z,73433
2015-09-15T01:27:34.317Z,73436
2015-09-15T01:27:46.723Z,73437
2015-09-15T01:27:59.114Z,73444
2015-09-15T01:28:11.538Z,73439
2015-09-15T01:28:23.944Z,73441
2015-09-15T01:28:36.194Z,73441
2015-09-15T01:28:48.600Z,73438
2015-09-15T01:29:01.053Z,73438
2015-09-15T01:29:13.477Z,73445
2015-09-15T01:29:25.930Z,73434
2015-09-15T01:29:38.336Z,73435
2015-09-15T01:29:50.727Z,73437
2015-09-15T01:30:03.133Z,73437
2015-09-15T01:30:15.526Z,73437
2015-09-15T01:30:27.917Z,73438
2015-09-15T01:30:40.307Z,73437
2015-09-15T01:30:52.713Z,73442
2015-09-15T01:31:05.104Z,73436
2015-09-15T01:31:17.512Z,73442
2015-09-15T01:31:29.919Z,73439
2015-09-15T01:31:42.325Z,73437
2015-09-15T01:31:54.731Z,73441
2015-09-15T01:32:07.153Z,73438
2015-09-15T01:32:19.639Z,73440
2015-09-15T01:32:32.092Z,73441
2015-09-15T01:32:44.514Z,73440
2015-09-15T01:32:56.217Z,73436
2015-09-15T01:33:08.624Z,73435
2015-09-15T01:33:21.063Z,73443
2015-09-15T01:33:33.469Z,73438
2015-09-15T01:33:45.157Z,73440
2015-09-15T01:33:57.548Z,73438
2015-09-15T01:34:09.954Z,73437
2015-09-15T01:34:22.361Z,73440
2015-09-15T01:34:34.767Z,73437
2015-09-15T01:34:47.220Z,73442
2015-09-15T01:34:59.627Z,73442
2015-09-15T01:35:12.049Z,73437
2015-09-15T01:35:24.457Z,73441
2015-09-15T01:35:36.863Z,73440
2015-09-15T01:35:49.301Z,73442
2015-09-15T01:36:01.722Z,73442
2015-09-15T01:36:14.144Z,73439
2015-09-15T01:36:26.537Z,73443
2015-09-15T01:36:38.928Z,73443
2015-09-15T01:36:51.334Z,73442
2015-09-15T01:37:03.771Z,73444
2015-09-15T01:37:16.162Z,73444
2015-09-15T01:37:28.587Z,73446
2015-09-15T01:37:40.993Z,73452
2015-09-15T01:37:53.415Z,73447
2015-09-15T01:38:05.852Z,73447
2015-09-15T01:38:18.321Z,73444
2015-09-15T01:38:30.761Z,73446
2015-09-15T01:38:43.167Z,73442
2015-09-15T01:38:55.558Z,73441
2015-09-15T01:39:07.948Z,73444
2015-09-15T01:39:20.339Z,73436
2015-09-15T01:39:32.731Z,73439
2015-09-15T01:39:45.122Z,73440
2015-09-15T01:39:57.544Z,73437
2015-09-15T01:40:09.935Z,73436
2015-09-15T01:40:22.325Z,73439
2015-09-15T01:40:34.671Z,73444
2015-09-15T01:40:47.077Z,73441
2015-09-15T01:40:59.499Z,73447
2015-09-15T01:41:11.937Z,73445
2015-09-15T01:41:24.392Z,73444
2015-09-15T01:41:36.829Z,73447
2015-09-15T01:41:49.220Z,73447
2015-09-15T01:42:01.610Z,73445
2015-09-15T01:42:14.001Z,73443
2015-09-15T01:42:26.408Z,73440
2015-09-15T01:42:38.830Z,73441
2015-09-15T01:42:51.268Z,73442
2015-09-15T01:43:03.658Z,73439
2015-09-15T01:43:16.049Z,73438
2015-09-15T01:43:28.443Z,73439
2015-09-15T01:43:40.849Z,73440
2015-09-15T01:43:53.255Z,73442
2015-09-15T01:44:05.661Z,73443
2015-09-15T01:44:18.255Z,73445
2015-09-15T01:44:30.678Z,73444
2015-09-15T01:44:43.069Z,73447
2015-09-15T01:44:55.459Z,73445
2015-09-15T01:45:07.850Z,73445
2015-09-15T01:45:20.240Z,73444
2015-09-15T01:45:32.633Z,73447
2015-09-15T01:45:45.039Z,73445
2015-09-15T01:45:57.461Z,73447
2015-09-15T01:46:09.883Z,73442
2015-09-15T01:46:22.289Z,73443
2015-09-15T01:46:34.713Z,73445
2015-09-15T01:46:47.151Z,73445
2015-09-15T01:46:59.588Z,73442
2015-09-15T01:47:12.026Z,73445
2015-09-15T01:47:24.416Z,73443
2015-09-15T01:47:36.809Z,73441
2015-09-15T01:47:49.215Z,73437
2015-09-15T01:48:01.621Z,73438
2015-09-15T01:48:14.012Z,73437
2015-09-15T01:48:26.403Z,73438
2015-09-15T01:48:38.811Z,73436
2015-09-15T01:48:51.202Z,73436
2015-09-15T01:49:03.608Z,73435
2015-09-15T01:49:16.014Z,73433
2015-09-15T01:49:28.702Z,73431
2015-09-15T01:49:41.141Z,73430
2015-09-15T01:49:53.563Z,73429
2015-09-15T01:50:06.063Z,73424
2015-09-15T01:50:18.516Z,73425
2015-09-15T01:50:30.907Z,73423
2015-09-15T01:50:43.159Z,73422
2015-09-15T01:50:55.272Z,73419
2015-09-15T01:51:07.538Z,73423
2015-09-15T01:51:19.944Z,73419
2015-09-15T01:51:32.944Z,73424
2015-09-15T01:51:45.383Z,73422
2015-09-15T01:51:57.790Z,73426
2015-09-15T01:52:10.196Z,73423
2015-09-15T01:52:22.618Z,73425
2015-09-15T01:52:35.024Z,73425
2015-09-15T01:52:47.463Z,73428
2015-09-15T01:52:59.885Z,73429
2015-09-15T01:53:12.292Z,73429
2015-09-15T01:53:24.682Z,73427
2015-09-15T01:53:37.073Z,73425
2015-09-15T01:53:49.497Z,73427
2015-09-15T01:54:01.903Z,73426
2015-09-15T01:54:14.372Z,73425
2015-09-15T01:54:26.872Z,73421
2015-09-15T01:54:38.592Z,73423
2015-09-15T01:54:50.874Z,73420
2015-09-15T01:55:03.327Z,73418
2015-09-15T01:55:15.749Z,73416
2015-09-15T01:55:28.186Z,73415
2015-09-15T01:55:40.579Z,73418
2015-09-15T01:55:52.251Z,73419
2015-09-15T01:56:04.657Z,73422
2015-09-15T01:56:17.048Z,73428
2015-09-15T01:56:29.454Z,73427
2015-09-15T01:56:41.878Z,73428
2015-09-15T01:56:54.268Z,73427
2015-09-15T01:57:06.643Z,73429
2015-09-15T01:57:19.034Z,73426
2015-09-15T01:57:31.471Z,73427
2015-09-15T01:57:43.880Z,73424
2015-09-15T01:57:56.317Z,73426
2015-09-15T01:58:08.739Z,73423
2015-09-15T01:58:21.161Z,73427
2015-09-15T01:58:33.598Z,73428
2015-09-15T01:58:46.054Z,73427
2015-09-15T01:58:58.491Z,73430
2015-09-15T01:59:10.179Z,73428
2015-09-15T01:59:22.569Z,73427
2015-09-15T01:59:34.975Z,73431
2015-09-15T01:59:47.399Z,73432
2015-09-15T01:59:59.821Z,73430
2015-09-15T02:00:12.071Z,73430
2015-09-15T02:00:24.462Z,73429
2015-09-15T02:00:36.868Z,73430
2015-09-15T02:00:49.276Z,73433
2015-09-15T02:01:01.683Z,73432
2015-09-15T02:01:14.136Z,73429
2015-09-15T02:01:26.526Z,73428
2015-09-15T02:01:38.948Z,73430
2015-09-15T02:01:51.388Z,73433
2015-09-15T02:02:03.841Z,73432
2015-09-15T02:02:16.263Z,73433
2015-09-15T02:02:28.669Z,73430
2015-09-15T02:02:41.060Z,73429
2015-09-15T02:02:53.452Z,73426
2015-09-15T02:03:05.858Z,73428
2015-09-15T02:03:18.280Z,73426
2015-09-15T02:03:30.671Z,73426
2015-09-15T02:03:43.077Z,73427
2015-09-15T02:03:55.470Z,73422
2015-09-15T02:04:07.876Z,73419
2015-09-15T02:04:20.298Z,73413
2015-09-15T02:04:32.720Z,73418
2015-09-15T02:04:45.142Z,73419
2015-09-15T02:04:57.580Z,73417
2015-09-15T02:05:10.002Z,73417
2015-09-15T02:05:22.424Z,73417
2015-09-15T02:05:34.861Z,73417
2015-09-15T02:05:47.268Z,73417
2015-09-15T02:05:59.676Z,73418
2015-09-15T02:06:12.098Z,73420
2015-09-15T02:06:24.488Z,73422
2015-09-15T02:06:36.910Z,73426
2015-09-15T02:06:49.301Z,73425
2015-09-15T02:07:01.710Z,73429
2015-09-15T02:07:14.132Z,73429
2015-09-15T02:07:26.570Z,73429
2015-09-15T02:07:38.976Z,73430
2015-09-15T02:07:51.366Z,73432
2015-09-15T02:08:03.774Z,73433
2015-09-15T02:08:16.274Z,73434
2015-09-15T02:08:28.758Z,73438
2015-09-15T02:08:41.180Z,73437
2015-09-15T02:08:53.617Z,73436
2015-09-15T02:09:06.058Z,73433
2015-09-15T02:09:18.511Z,73434
2015-09-15T02:09:30.902Z,73432
2015-09-15T02:09:43.292Z,73431
2015-09-15T02:09:55.683Z,73426
2015-09-15T02:10:08.091Z,73428
2015-09-15T02:10:20.482Z,73433
2015-09-15T02:10:32.888Z,73432
2015-09-15T02:10:45.294Z,73431
2015-09-15T02:10:57.687Z,73436
2015-09-15T02:11:10.078Z,73436
2015-09-15T02:11:22.484Z,73436
2015-09-15T02:11:34.218Z,73434
2015-09-15T02:11:46.624Z,73437
2015-09-15T02:11:59.047Z,73434
2015-09-15T02:12:11.485Z,73434
2015-09-15T02:12:23.907Z,73435
2015-09-15T02:12:36.360Z,73436
2015-09-15T02:12:48.782Z,73435
2015-09-15T02:13:01.206Z,73435
2015-09-15T02:13:13.596Z,73436
2015-09-15T02:13:26.002Z,73438
2015-09-15T02:13:38.393Z,73435
2015-09-15T02:13:50.784Z,73434
2015-09-15T02:14:03.192Z,73434
2015-09-15T02:14:15.583Z,73433
2015-09-15T02:14:27.973Z,73435
2015-09-15T02:14:40.364Z,73438
2015-09-15T02:14:52.770Z,73441
2015-09-15T02:15:05.195Z,73447
2015-09-15T02:15:17.617Z,73445
2015-09-15T02:15:30.007Z,73444
2015-09-15T02:15:42.429Z,73446
2015-09-15T02:15:54.867Z,73446
2015-09-15T02:16:07.274Z,73446
2015-09-15T02:16:19.665Z,73446
2015-09-15T02:16:32.071Z,73446
2015-09-15T02:16:44.477Z,73445
2015-09-15T02:16:56.852Z,73445
2015-09-15T02:17:09.245Z,73448
2015-09-15T02:17:21.667Z,73446
2015-09-15T02:17:33.370Z,73445
2015-09-15T02:17:45.760Z,73448
2015-09-15T02:17:58.182Z,73449
2015-09-15T02:18:10.606Z,73450
2015-09-15T02:18:23.059Z,73450
2015-09-15T02:18:35.497Z,73451
2015-09-15T02:18:47.903Z,73449
2015-09-15T02:19:00.294Z,73448
2015-09-15T02:19:12.703Z,73444
2015-09-15T02:19:25.156Z,73448
2015-09-15T02:19:37.547Z,73448
2015-09-15T02:19:49.937Z,73446
2015-09-15T02:20:02.359Z,73448
2015-09-15T02:20:14.751Z,73449
2015-09-15T02:20:27.141Z,73444
2015-09-15T02:20:39.548Z,73448
2015-09-15T02:20:51.954Z,73449
2015-09-15T02:21:04.360Z,73449
2015-09-15T02:21:16.768Z,73448
2015-09-15T02:21:29.190Z,73446
2015-09-15T02:21:41.628Z,73444
2015-09-15T02:21:54.081Z,73445
2015-09-15T02:22:06.503Z,73446
2015-09-15T02:22:18.927Z,73440
2015-09-15T02:22:31.333Z,73439
2015-09-15T02:22:43.724Z,73443
2015-09-15T02:22:56.114Z,73437
2015-09-15T02:23:08.505Z,73441
2015-09-15T02:23:20.913Z,73438
2015-09-15T02:23:33.319Z,73440
2015-09-15T02:23:45.726Z,73439
2015-09-15T02:23:58.132Z,73440
2015-09-15T02:24:10.569Z,73439
2015-09-15T02:24:23.009Z,73441
2015-09-15T02:24:35.431Z,73439
2015-09-15T02:24:47.946Z,73445
2015-09-15T02:25:00.415Z,73442
2015-09-15T02:25:12.806Z,73439
2015-09-15T02:25:25.214Z,73441
2015-09-15T02:25:37.589Z,73439
2015-09-15T02:25:49.995Z,73441
2015-09-15T02:26:02.230Z,73446
2015-09-15T02:26:14.620Z,73445
2015-09-15T02:26:27.028Z,73445
2015-09-15T02:26:39.466Z,73443
2015-09-15T02:26:51.935Z,73443
2015-09-15T02:27:04.357Z,73445
2015-09-15T02:27:16.763Z,73445
2015-09-15T02:27:29.187Z,73447
2015-09-15T02:27:41.609Z,73449
2015-09-15T02:27:54.109Z,73450
2015-09-15T02:28:06.609Z,73447
2015-09-15T02:28:19.030Z,73447
2015-09-15T02:28:31.454Z,73447
2015-09-15T02:28:43.845Z,73446
2015-09-15T02:28:56.345Z,73445
2015-09-15T02:29:08.803Z,73447
2015-09-15T02:29:21.194Z,73447
2015-09-15T02:29:33.601Z,73446
2015-09-15T02:29:45.991Z,73445
2015-09-15T02:29:58.398Z,73447
2015-09-15T02:30:10.788Z,73445
2015-09-15T02:30:23.023Z,73446
2015-09-15T02:30:35.448Z,73444
2015-09-15T02:30:47.869Z,73443
2015-09-15T02:31:00.276Z,73441
2015-09-15T02:31:12.557Z,73440
2015-09-15T02:31:24.979Z,73441
2015-09-15T02:31:37.403Z,73441
2015-09-15T02:31:49.825Z,73441
2015-09-15T02:32:02.231Z,73440
2015-09-15T02:32:14.621Z,73436
2015-09-15T02:32:27.012Z,73439
2015-09-15T02:32:39.405Z,73442
2015-09-15T02:32:51.108Z,73442
2015-09-15T02:33:03.498Z,73443
2015-09-15T02:33:15.889Z,73448
2015-09-15T02:33:28.280Z,73445
2015-09-15T02:33:40.672Z,73441
2015-09-15T02:33:52.922Z,73439
2015-09-15T02:34:05.329Z,73437
2015-09-15T02:34:17.750Z,73436
2015-09-15T02:34:30.157Z,73437
2015-09-15T02:34:42.565Z,73434
2015-09-15T02:34:54.987Z,73437
2015-09-15T02:35:07.393Z,73441
2015-09-15T02:35:19.627Z,73439
2015-09-15T02:35:32.002Z,73436
2015-09-15T02:35:43.676Z,73438
2015-09-15T02:35:56.067Z,73439
2015-09-15T02:36:08.458Z,73435
2015-09-15T02:36:20.864Z,73434
2015-09-15T02:36:33.270Z,73433
2015-09-15T02:36:45.662Z,73434
2015-09-15T02:36:58.068Z,73437
2015-09-15T02:37:10.474Z,73434
2015-09-15T02:37:22.896Z,73434
2015-09-15T02:37:35.380Z,73436
2015-09-15T02:37:47.804Z,73435
2015-09-15T02:38:00.226Z,73430
2015-09-15T02:38:12.648Z,73431
2015-09-15T02:38:25.086Z,73425
2015-09-15T02:38:37.523Z,73427
2015-09-15T02:38:49.917Z,73430
2015-09-15T02:39:02.307Z,73430
2015-09-15T02:39:14.714Z,73423
2015-09-15T02:39:27.104Z,73427
2015-09-15T02:39:39.497Z,73433